Flight Track Log - Related Links

Times and Time Zones

All times are in EST time to prevent confusion due to time zone crossing. See the N45NS flight status page for this flight to view local times or setup timezone preferences in your user account.

Time Position Orientation Groundspeed Altitude Reporting Facility
EST Latitude Longitude Course Direction KTS MPH feet Rate Location/Type
Wed 03:05:25 PM 26.2422 -80.1297 26° Northeast 275 316 2,200  Level Miami Center
Wed 03:06:25 PM 26.2828 -80.1864 309° West 304 350 4,200 3,100 Climbing Miami Center
Wed 03:07:25 PM 26.3081 -80.2636 290° West 284 327 8,400 3,600 Climbing Miami Center
Wed 03:08:25 PM 26.3697 -80.3025 331° Northwest 249 287 11,400 2,800 Climbing Miami Center
Wed 03:09:25 PM 26.4442 -80.3394 336° Northwest 262 302 14,000 2,400 Climbing Miami Center
Wed 03:10:25 PM 26.5206 -80.3694 341° North 278 320 16,200 2,050 Climbing Miami Center
Wed 03:11:25 PM 26.6033 -80.4022 341° North 297 342 18,100 1,950 Climbing Miami Center
Wed 03:12:25 PM 26.6903 -80.4372 340° North 316 364 20,100 2,000 Climbing Miami Center
Wed 03:13:25 PM 26.7772 -80.4703 341° North 327 376 22,100 1,850 Climbing Miami Center
Wed 03:14:25 PM 26.8681 -80.5103 339° North 332 382 23,800 1,550 Climbing Miami Center
Wed 03:15:25 PM 26.9653 -80.5506 340° North 351 404 25,200 1,450 Climbing Miami Center
Wed 03:16:25 PM 27.0664 -80.5889 341° North 364 419 26,700 1,650 Climbing Miami Center
Wed 03:17:25 PM 27.1594 -80.6269 340° North 364 419 28,500 1,650 Climbing Miami Center
Wed 03:18:25 PM 27.2567 -80.6675 340° North 364 419 30,000 1,500 Climbing Miami Center
Wed 03:19:25 PM 27.3536 -80.7056 341° North 364 419 31,500 1,450 Climbing Miami Center
Wed 03:20:25 PM 27.4528 -80.7442 341° North 369 425 32,900 1,500 Climbing Miami Center
Wed 03:21:25 PM 27.5314 -80.7747 341° North 369 425 34,500 1,603 Climbing Miami Center
Wed 03:22:36 PM 27.6347 -80.8136 342° North 369 425 36,400 1,500 Climbing Miami Center
Wed 03:23:37 PM 27.7442 -80.8594 340° North 361 415 37,800 1,240 Climbing Miami Center
Wed 03:24:37 PM 27.8369 -80.8956 341° North 356 410 38,900 1,050 Climbing Miami Center
Wed 03:25:37 PM 27.9256 -80.9342 339° North 346 398 39,900 1,000 Climbing Miami Center
Wed 03:26:37 PM 28.0206 -80.9703 341° North 346 398 40,900 550 Climbing Miami Center
Wed 03:27:37 PM 28.1133 -81.0114 339° North 346 398 41,000 50 Climbing Miami Center
Wed 03:28:37 PM 28.2164 -81.0528 341° North 366 421 41,000  Level Miami Center
Wed 03:30:31 PM 28.4281 -81.1433 339° North 423 487 41,000  Level Jacksonville Center
Wed 03:31:31 PM 28.5372 -81.1889 340° North 428 493 41,000  Level Jacksonville Center
Wed 03:32:31 PM 28.6464 -81.2342 340° North 423 487 41,000  Level Jacksonville Center
Wed 03:33:31 PM 28.7597 -81.2797 341° North 423 487 41,000  Level Jacksonville Center
Wed 03:34:31 PM 28.8644 -81.3231 340° North 418 481 41,000  Level Jacksonville Center
Wed 03:35:31 PM 28.9736 -81.3689 340° North 410 472 41,000  Level Jacksonville Center
Wed 03:36:31 PM 29.0825 -81.4122 341° North 411 473 41,000  Level Jacksonville Center
Wed 03:37:31 PM 29.1897 -81.4583 339° North 411 473 41,000  Level Jacksonville Center
Wed 03:38:31 PM 29.2861 -81.4997 339° North 402 463 41,000  Level Jacksonville Center
Wed 03:39:31 PM 29.3908 -81.5458 339° North 402 463 41,000  Level Jacksonville Center
Wed 03:40:31 PM 29.4936 -81.5897 340° North 402 463 41,000  Level Jacksonville Center
Wed 03:41:31 PM 29.6006 -81.6339 340° North 402 463 41,000  Level Jacksonville Center
Wed 03:42:31 PM 29.7053 -81.6803 339° North 402 463 41,000  Level Jacksonville Center
Wed 03:43:31 PM 29.8144 -81.7219 342° North 402 463 41,000  Level Jacksonville Center
Wed 03:44:31 PM 29.9214 -81.7686 339° North 407 468 41,000  Level Jacksonville Center
Wed 03:45:31 PM 30.0406 -81.8153 341° North 407 468 41,000  Level Jacksonville Center
Wed 03:46:31 PM 30.1433 -81.8597 339° North 402 463 41,000  Level Jacksonville Center
Wed 03:47:31 PM 30.2522 -81.8922 346° North 407 468 41,000  Level Jacksonville Center
Wed 03:48:31 PM 30.3753 -81.8958 359° North 415 478 41,000  Level Jacksonville Center
Wed 03:49:31 PM 30.4986 -81.8992 359° North 434 499 41,000  Level Jacksonville Center
Wed 03:50:31 PM 30.6197 -81.9078 356° North 440 506 41,000  Level Jacksonville Center
Wed 03:51:31 PM 30.7408 -81.9111 359° North 440 506 41,000  Level Jacksonville Center
Wed 03:52:31 PM 30.8642 -81.9172 358° North 440 506 41,000  Level Jacksonville Center
Wed 03:53:31 PM 30.9853 -81.9208 359° North 440 506 41,000  Level Jacksonville Center
Wed 03:54:31 PM 31.1106 -81.9269 358° North 440 506 41,000  Level Jacksonville Center
Wed 03:55:31 PM 31.2358 -81.9328 358° North 441 507 41,000  Level Jacksonville Center
Wed 03:56:31 PM 31.3569 -81.9339 360° North 445 512 41,000  Level Jacksonville Center
Wed 03:57:31 PM 31.4844 -81.9400 358° North 440 506 41,000  Level Jacksonville Center
Wed 03:58:31 PM 31.6056 -81.9436 359° North 440 506 41,000  Level Jacksonville Center
Wed 03:59:31 PM 31.7203 -81.9497 357° North 445 512 41,000  Level Jacksonville Center
Wed 04:00:31 PM 31.8561 -81.9533 359° North 434 499 41,000  Level Jacksonville Center
Wed 04:02:22 PM 32.0756 -81.9603 358° North 443 510 41,000  Level Atlanta Center
Wed 04:03:22 PM 32.1947 -81.9672 357° North 437 503 41,000  Level Atlanta Center
Wed 04:04:22 PM 32.3114 -81.9669 360° North 427 491 41,000  Level Atlanta Center
Wed 04:05:22 PM 32.4347 -81.9717 358° North 427 491 41,000  Level Atlanta Center
Wed 04:06:22 PM 32.5558 -81.9786 357° North 427 491 41,000  Level Atlanta Center
Wed 04:07:22 PM 32.6894 -81.9828 358° North 432 497 41,000  Level Atlanta Center
Wed 04:08:22 PM 32.8086 -81.9850 359° North 432 497 41,000  Level Atlanta Center
Wed 04:09:22 PM 32.9297 -81.9922 357° North 432 497 41,000  Level Atlanta Center
Wed 04:10:22 PM 33.0531 -81.9967 358° North 437 503 41,000  Level Atlanta Center
Wed 04:11:22 PM 33.1719 -81.9989 359° North 437 503 41,000 -700 Level Atlanta Center
Wed 04:12:22 PM 33.2953 -82.0058 357° North 437 503 39,600 -1,450 Descending Atlanta Center
Wed 04:13:22 PM 33.4186 -82.0106 358° North 437 503 38,100 -1,450 Descending Atlanta Center
Wed 04:14:22 PM 33.5417 -82.0150 358° North 442 509 36,700 -1,450 Descending Atlanta Center
Wed 04:15:22 PM 33.6608 -82.0197 358° North 436 502 35,200 -850 Descending Atlanta Center
Wed 04:16:22 PM 33.7756 -82.0219 359° North 426 490 35,000 -100 Descending Atlanta Center
Wed 04:17:22 PM 33.8947 -82.0292 357° North 426 490 35,000  Level Atlanta Center
Wed 04:18:22 PM 34.0053 -82.0317 359° North 431 496 35,000 -250 Level Atlanta Center
Wed 04:19:22 PM 34.1222 -82.0389 357° North 426 490 34,500 -950 Descending Atlanta Center
Wed 04:20:22 PM 34.2372 -82.0411 359° North 415 478 33,100 -750 Descending Atlanta Center
Wed 04:21:22 PM 34.3519 -82.0461 358° North 415 478 33,000 -950 Descending Atlanta Center
Wed 04:22:22 PM 34.4689 -82.0508 358° North 415 478 31,200 -1,950 Descending Atlanta Center
Wed 04:23:22 PM 34.5839 -82.0558 358° North 415 478 29,100 -1,600 Descending Atlanta Center
Wed 04:24:22 PM 34.6944 -82.0606 358° North 409 471 28,000 -550 Descending Atlanta Center
Wed 04:25:22 PM 34.8094 -82.0681 357° North 403 464 28,000  Level Atlanta Center
Wed 04:26:22 PM 34.9431 -82.0725 358° North 419 482 28,000 -250 Level Atlanta Center
Wed 04:27:22 PM 35.0600 -82.0772 358° North 425 489 27,500 -1,000 Descending Atlanta Center
Wed 04:28:22 PM 35.1747 -82.0822 358° North 420 483 26,000 -1,450 Descending Atlanta Center
Wed 04:29:22 PM 35.2875 -82.0872 358° North 409 471 24,600 -1,450 Descending Atlanta Center
Wed 04:30:22 PM 35.4003 -82.0897 359° North 403 464 23,100 -1,350 Descending Atlanta Center
Wed 04:31:22 PM 35.4861 -82.1081 350° North 403 464 21,900 -1,300 Descending Atlanta Center
Wed 04:32:22 PM 35.5992 -82.1411 347° North 387 445 20,500 -1,550 Descending Atlanta Center
Wed 04:33:22 PM 35.6978 -82.1719 346° North 376 433 18,800 -1,250 Descending Atlanta Center
Wed 04:34:22 PM 35.7964 -82.2006 347° North 365 420 18,000 -750 Descending Atlanta Center
Wed 04:35:22 PM 35.8928 -82.2292 346° North 360 414 17,300 -1,500 Descending Atlanta Center
Wed 04:36:22 PM 36.0017 -82.2625 346° North 360 414 15,000 -2,150 Descending Atlanta Center
Wed 04:37:22 PM 36.0958 -82.2914 346° North 355 409 13,000 -2,100 Descending Atlanta Center
Wed 04:38:22 PM 36.1839 -82.3203 345° North 335 386 10,800 -2,500 Descending Atlanta Center
Wed 04:39:22 PM 36.2636 -82.3444 346° North 308 354 8,000 -2,700 Descending Atlanta Center
Wed 04:40:22 PM 36.3367 -82.3556 353° North 277 319 5,400 -2,400 Descending Atlanta Center
Wed 04:41:22 PM 36.4056 -82.3619 356° North 253 291 3,200 -1,200 Descending Atlanta Center
Wed 04:42:22 PM 36.4597 -82.3556 North 216 249 3,000 -467 Descending Atlanta Center
Wed 04:44:22 PM 36.4978 -82.4067 313° West 109 125 1,800 -600 Descending Atlanta Center
Wed 04:46:00 PM 36.4752 -82.4074 238° Southwest  Level Estimated

Login

Don't have an account? Register now (free) for customized features, flight alerts, and more!